sensor_id;sensor_type;location;lat;lon;timestamp;pressure;altitude;pressure_sealevel;temperature;humidity
7824;BME280;3957;48.61947800;9.05303100;2023-01-27T00:00:22;96186.84;;;-4.00;100.00
7824;BME280;3957;48.61947800;9.05303100;2023-01-27T00:01:23;96184.34;;;-4.02;100.00
7824;BME280;3957;48.61947800;9.05303100;2023-01-27T00:02:24;96179.09;;;-4.02;100.00
7824;BME280;3957;48.61947800;9.05303100;2023-01-27T00:03:24;96180.63;;;-3.99;100.00
7824;BME280;3957;48.61947800;9.05303100;2023-01-27T00:04:24;96182.53;;;-4.01;100.00
7824;BME280;3957;48.61947800;9.05303100;2023-01-27T00:05:25;96185.28;;;-4.03;100.00
7824;BME280;3957;48.61947800;9.05303100;2023-01-27T00:06:25;96184.22;;;-4.00;100.00
7824;BME280;3957;48.61947800;9.05303100;2023-01-27T00:07:26;96180.75;;;-4.01;100.00
7824;BME280;3957;48.61947800;9.05303100;2023-01-27T00:08:27;96177.53;;;-4.04;100.00
7824;BME280;3957;48.61947800;9.05303100;2023-01-27T00:09:28;96178.47;;;-4.05;100.00
7824;BME280;3957;48.61947800;9.05303100;2023-01-27T00:10:28;96173.13;;;-4.04;100.00
7824;BME280;3957;48.61947800;9.05303100;2023-01-27T00:11:29;96180.75;;;-4.01;100.00
7824;BME280;3957;48.61947800;9.05303100;2023-01-27T00:12:48;96172.72;;;-3.98;100.00
7824;BME280;3957;48.61947800;9.05303100;2023-01-27T00:14:07;96174.81;;;-4.03;100.00
7824;BME280;3957;48.61947800;9.05303100;2023-01-27T00:15:09;96169.81;;;-4.06;100.00
7824;BME280;3957;48.61947800;9.05303100;2023-01-27T00:16:10;96173.97;;;-4.03;100.00
7824;BME280;3957;48.61947800;9.05303100;2023-01-27T00:17:10;96178.25;;;-4.02;100.00
7824;BME280;3957;48.61947800;9.05303100;2023-01-27T00:18:11;96177.31;;;-4.01;100.00
7824;BME280;3957;48.61947800;9.05303100;2023-01-27T00:19:11;96173.13;;;-4.04;100.00
7824;BME280;3957;48.61947800;9.05303100;2023-01-27T00:20:11;96178.03;;;-3.99;100.00
7824;BME280;3957;48.61947800;9.05303100;2023-01-27T00:21:12;96169.59;;;-4.03;100.00
7824;BME280;3957;48.61947800;9.05303100;2023-01-27T00:22:31;96170.28;;;-4.01;100.00
7824;BME280;3957;48.61947800;9.05303100;2023-01-27T00:23:50;96174.69;;;-4.01;100.00
7824;BME280;3957;48.61947800;9.05303100;2023-01-27T00:25:09;96172.72;;;-3.98;100.00
7824;BME280;3957;48.61947800;9.05303100;2023-01-27T00:26:12;96167.47;;;-3.98;100.00
7824;BME280;3957;48.61947800;9.05303100;2023-01-27T00:27:15;96163.66;;;-3.94;100.00
7824;BME280;3957;48.61947800;9.05303100;2023-01-27T00:28:16;96158.09;;;-4.00;100.00
7824;BME280;3957;48.61947800;9.05303100;2023-01-27T00:29:22;96159.03;;;-4.01;100.00
7824;BME280;3957;48.61947800;9.05303100;2023-01-27T00:30:22;96158.19;;;-4.02;100.00
7824;BME280;3957;48.61947800;9.05303100;2023-01-27T00:31:23;96152.97;;;-4.02;100.00
7824;BME280;3957;48.61947800;9.05303100;2023-01-27T00:32:42;96155.06;;;-4.07;100.00
7824;BME280;3957;48.61947800;9.05303100;2023-01-27T00:34:01;96152.34;;;-4.05;100.00
7824;BME280;3957;48.61947800;9.05303100;2023-01-27T00:35:08;96151.59;;;-4.07;100.00
7824;BME280;3957;48.61947800;9.05303100;2023-01-27T00:36:08;96159.38;;;-4.06;100.00
7824;BME280;3957;48.61947800;9.05303100;2023-01-27T00:37:09;96162.81;;;-4.05;100.00
7824;BME280;3957;48.61947800;9.05303100;2023-01-27T00:38:09;96168.16;;;-4.07;100.00
7824;BME280;3957;48.61947800;9.05303100;2023-01-27T00:39:11;96167.22;;;-4.06;100.00
7824;BME280;3957;48.61947800;9.05303100;2023-01-27T00:40:13;96166.13;;;-4.03;100.00
7824;BME280;3957;48.61947800;9.05303100;2023-01-27T00:41:14;96162.06;;;-4.07;100.00
7824;BME280;3957;48.61947800;9.05303100;2023-01-27T00:42:18;96163.63;;;-4.05;100.00
7824;BME280;3957;48.61947800;9.05303100;2023-01-27T00:43:19;96164.59;;;-4.06;100.00
7824;BME280;3957;48.61947800;9.05303100;2023-01-27T00:44:19;96156.53;;;-4.03;100.00
7824;BME280;3957;48.61947800;9.05303100;2023-01-27T00:45:19;96162.34;;;-3.99;100.00
7824;BME280;3957;48.61947800;9.05303100;2023-01-27T00:46:58;96160.06;;;-4.04;100.00
7824;BME280;3957;48.61947800;9.05303100;2023-01-27T00:47:59;96165.41;;;-4.05;100.00
7824;BME280;3957;48.61947800;9.05303100;2023-01-27T00:48:59;96165.41;;;-4.05;100.00
7824;BME280;3957;48.61947800;9.05303100;2023-01-27T00:49:59;96171.47;;;-4.05;100.00
7824;BME280;3957;48.61947800;9.05303100;2023-01-27T00:51:00;96174.06;;;-4.05;100.00
7824;BME280;3957;48.61947800;9.05303100;2023-01-27T00:52:00;96170.53;;;-4.04;100.00
7824;BME280;3957;48.61947800;9.05303100;2023-01-27T00:53:01;96170.19;;;-3.99;100.00
7824;BME280;3957;48.61947800;9.05303100;2023-01-27T00:54:04;96170.28;;;-4.01;100.00
7824;BME280;3957;48.61947800;9.05303100;2023-01-27T00:55:05;96174.47;;;-3.98;100.00
7824;BME280;3957;48.61947800;9.05303100;2023-01-27T00:56:07;96168.53;;;-4.00;100.00
7824;BME280;3957;48.61947800;9.05303100;2023-01-27T00:57:07;96168.41;;;-3.99;100.00
7824;BME280;3957;48.61947800;9.05303100;2023-01-27T00:58:07;96168.75;;;-4.03;100.00
7824;BME280;3957;48.61947800;9.05303100;2023-01-27T00:59:08;96173.97;;;-4.03;100.00
7824;BME280;3957;48.61947800;9.05303100;2023-01-27T01:00:09;96171.97;;;-4.00;100.00
7824;BME280;3957;48.61947800;9.05303100;2023-01-27T01:01:13;96174.94;;;-4.04;100.00
7824;BME280;3957;48.61947800;9.05303100;2023-01-27T01:02:13;96171.47;;;-4.05;100.00
7824;BME280;3957;48.61947800;9.05303100;2023-01-27T01:03:14;96171.34;;;-4.03;100.00
7824;BME280;3957;48.61947800;9.05303100;2023-01-27T01:04:14;96173.25;;;-4.05;100.00
7824;BME280;3957;48.61947800;9.05303100;2023-01-27T01:05:15;96169.81;;;-4.06;100.00
7824;BME280;3957;48.61947800;9.05303100;2023-01-27T01:06:16;96164.91;;;-4.11;100.00
7824;BME280;3957;48.61947800;9.05303100;2023-01-27T01:07:17;96167.28;;;-4.07;100.00
7824;BME280;3957;48.61947800;9.05303100;2023-01-27T01:08:17;96171.69;;;-4.08;100.00
7824;BME280;3957;48.61947800;9.05303100;2023-01-27T01:09:18;96177.03;;;-4.10;100.00
7824;BME280;3957;48.61947800;9.05303100;2023-01-27T01:10:18;96176.09;;;-4.08;100.00
7824;BME280;3957;48.61947800;9.05303100;2023-01-27T01:11:19;96175.13;;;-4.07;100.00
7824;BME280;3957;48.61947800;9.05303100;2023-01-27T01:12:20;96177.66;;;-4.06;100.00
7824;BME280;3957;48.61947800;9.05303100;2023-01-27T01:13:24;96179.31;;;-4.05;100.00
7824;BME280;3957;48.61947800;9.05303100;2023-01-27T01:14:24;96179.00;;;-4.00;100.00
7824;BME280;3957;48.61947800;9.05303100;2023-01-27T01:15:24;96175.88;;;-4.05;100.00
7824;BME280;3957;48.61947800;9.05303100;2023-01-27T01:16:25;96176.09;;;-4.08;100.00
7824;BME280;3957;48.61947800;9.05303100;2023-01-27T01:17:25;96178.72;;;-4.08;100.00
7824;BME280;3957;48.61947800;9.05303100;2023-01-27T01:18:25;96176.91;;;-4.08;100.00
7824;BME280;3957;48.61947800;9.05303100;2023-01-27T01:19:26;96177.25;;;-4.13;100.00
7824;BME280;3957;48.61947800;9.05303100;2023-01-27T01:20:28;96174.66;;;-4.13;100.00
7824;BME280;3957;48.61947800;9.05303100;2023-01-27T01:21:29;96173.47;;;-4.08;100.00
7824;BME280;3957;48.61947800;9.05303100;2023-01-27T01:22:31;96176.09;;;-4.08;100.00
7824;BME280;3957;48.61947800;9.05303100;2023-01-27T01:23:33;96181.31;;;-4.08;100.00
7824;BME280;3957;48.61947800;9.05303100;2023-01-27T01:24:34;96176.91;;;-4.08;100.00
7824;BME280;3957;48.61947800;9.05303100;2023-01-27T01:25:35;96181.31;;;-4.08;100.00
7824;BME280;3957;48.61947800;9.05303100;2023-01-27T01:26:35;96177.16;;;-4.11;100.00
7824;BME280;3957;48.61947800;9.05303100;2023-01-27T01:27:36;96181.91;;;-4.05;100.00
7824;BME280;3957;48.61947800;9.05303100;2023-01-27T01:28:37;96177.75;;;-4.07;100.00
7824;BME280;3957;48.61947800;9.05303100;2023-01-27T01:29:37;96179.31;;;-4.05;100.00
7824;BME280;3957;48.61947800;9.05303100;2023-01-27T01:30:38;96185.28;;;-4.03;100.00
7824;BME280;3957;48.61947800;9.05303100;2023-01-27T01:31:39;96180.88;;;-4.02;100.00
7824;BME280;3957;48.61947800;9.05303100;2023-01-27T01:32:39;96180.97;;;-4.04;100.00
7824;BME280;3957;48.61947800;9.05303100;2023-01-27T01:33:40;96179.31;;;-4.05;100.00
7824;BME280;3957;48.61947800;9.05303100;2023-01-27T01:34:40;96179.31;;;-4.05;100.00
7824;BME280;3957;48.61947800;9.05303100;2023-01-27T01:35:41;96177.75;;;-4.07;100.00
7824;BME280;3957;48.61947800;9.05303100;2023-01-27T01:36:42;96171.94;;;-4.11;100.00
7824;BME280;3957;48.61947800;9.05303100;2023-01-27T01:37:43;96172.75;;;-4.11;100.00
7824;BME280;3957;48.61947800;9.05303100;2023-01-27T01:38:43;96170.25;;;-4.12;100.00
7824;BME280;3957;48.61947800;9.05303100;2023-01-27T01:39:44;96178.72;;;-4.08;100.00
7824;BME280;3957;48.61947800;9.05303100;2023-01-27T01:40:44;96178.47;;;-4.05;100.00
7824;BME280;3957;48.61947800;9.05303100;2023-01-27T01:41:45;96174.31;;;-4.08;100.00
7824;BME280;3957;48.61947800;9.05303100;2023-01-27T01:43:52;96183.81;;;-4.07;100.00
7824;BME280;3957;48.61947800;9.05303100;2023-01-27T01:45:39;96174.19;;;-4.06;100.00
7824;BME280;3957;48.61947800;9.05303100;2023-01-27T01:46:39;96176.91;;;-4.08;100.00
7824;BME280;3957;48.61947800;9.05303100;2023-01-27T01:47:43;96172.53;;;-4.07;100.00
7824;BME280;3957;48.61947800;9.05303100;2023-01-27T01:48:50;96170.88;;;-4.08;100.00
7824;BME280;3957;48.61947800;9.05303100;2023-01-27T01:49:53;96177.16;;;-4.11;100.00
7824;BME280;3957;48.61947800;9.05303100;2023-01-27T01:52:08;96181.31;;;-4.08;100.00
7824;BME280;3957;48.61947800;9.05303100;2023-01-27T01:53:10;96175.88;;;-4.05;100.00
7824;BME280;3957;48.61947800;9.05303100;2023-01-27T01:54:16;96173.97;;;-4.03;100.00
7824;BME280;3957;48.61947800;9.05303100;2023-01-27T01:55:17;96179.53;;;-4.08;100.00
7824;BME280;3957;48.61947800;9.05303100;2023-01-27T01:56:22;96172.84;;;-4.12;100.00
7824;BME280;3957;48.61947800;9.05303100;2023-01-27T01:57:30;96172.75;;;-4.11;100.00
7824;BME280;3957;48.61947800;9.05303100;2023-01-27T01:58:34;96171.81;;;-4.10;100.00
7824;BME280;3957;48.61947800;9.05303100;2023-01-27T01:59:40;96163.16;;;-4.10;100.00
7824;BME280;3957;48.61947800;9.05303100;2023-01-27T02:00:42;96172.84;;;-4.12;100.00
7824;BME280;3957;48.61947800;9.05303100;2023-01-27T02:01:42;96167.63;;;-4.12;100.00
7824;BME280;3957;48.61947800;9.05303100;2023-01-27T02:02:43;96165.75;;;-4.10;100.00
7824;BME280;3957;48.61947800;9.05303100;2023-01-27T02:03:47;96161.75;;;-4.03;100.00
7824;BME280;3957;48.61947800;9.05303100;2023-01-27T02:05:08;96160.91;;;-4.03;100.00
7824;BME280;3957;48.61947800;9.05303100;2023-01-27T02:06:10;96159.44;;;-4.07;100.00
7824;BME280;3957;48.61947800;9.05303100;2023-01-27T02:07:19;96163.75;;;-4.06;100.00
7824;BME280;3957;48.61947800;9.05303100;2023-01-27T02:08:49;96159.44;;;-4.07;100.00
7824;BME280;3957;48.61947800;9.05303100;2023-01-27T02:09:50;96155.91;;;-4.06;100.00
7824;BME280;3957;48.61947800;9.05303100;2023-01-27T02:10:52;96149.84;;;-4.07;100.00
7824;BME280;3957;48.61947800;9.05303100;2023-01-27T02:11:54;96154.97;;;-4.05;100.00
7824;BME280;3957;48.61947800;9.05303100;2023-01-27T02:12:54;96154.13;;;-4.06;100.00
7824;BME280;3957;48.61947800;9.05303100;2023-01-27T02:13:59;96151.59;;;-4.07;100.00
7824;BME280;3957;48.61947800;9.05303100;2023-01-27T02:15:03;96150.78;;;-4.08;100.00
7824;BME280;3957;48.61947800;9.05303100;2023-01-27T02:16:04;96151.59;;;-4.07;100.00
7824;BME280;3957;48.61947800;9.05303100;2023-01-27T02:17:05;96153.16;;;-4.05;100.00
7824;BME280;3957;48.61947800;9.05303100;2023-01-27T02:18:06;96152.13;;;-4.02;100.00
7824;BME280;3957;48.61947800;9.05303100;2023-01-27T02:19:13;96152.13;;;-4.02;100.00
7824;BME280;3957;48.61947800;9.05303100;2023-01-27T02:21:35;96150.44;;;-4.03;100.00
7824;BME280;3957;48.61947800;9.05303100;2023-01-27T02:22:55;96153.91;;;-4.03;100.00
7824;BME280;3957;48.61947800;9.05303100;2023-01-27T02:24:01;96148.44;;;-4.00;100.00
7824;BME280;3957;48.61947800;9.05303100;2023-01-27T02:26:36;96152.34;;;-4.05;100.00
7824;BME280;3957;48.61947800;9.05303100;2023-01-27T02:27:38;96149.50;;;-4.02;100.00
7824;BME280;3957;48.61947800;9.05303100;2023-01-27T02:28:39;96148.69;;;-4.03;100.00
7824;BME280;3957;48.61947800;9.05303100;2023-01-27T02:29:39;96156.53;;;-4.03;100.00
7824;BME280;3957;48.61947800;9.05303100;2023-01-27T02:30:40;96151.53;;;-4.06;100.00
7824;BME280;3957;48.61947800;9.05303100;2023-01-27T02:31:40;96153.16;;;-4.05;100.00
7824;BME280;3957;48.61947800;9.05303100;2023-01-27T02:32:41;96149.63;;;-4.04;100.00
7824;BME280;3957;48.61947800;9.05303100;2023-01-27T02:33:41;96149.50;;;-4.02;100.00
7824;BME280;3957;48.61947800;9.05303100;2023-01-27T02:34:41;96149.84;;;-4.07;100.00
7824;BME280;3957;48.61947800;9.05303100;2023-01-27T02:36:58;96147.81;;;-4.03;100.00
7824;BME280;3957;48.61947800;9.05303100;2023-01-27T02:38:02;96147.81;;;-4.03;100.00
7824;BME280;3957;48.61947800;9.05303100;2023-01-27T02:39:04;96146.56;;;-3.98;100.00
7824;BME280;3957;48.61947800;9.05303100;2023-01-27T02:40:09;96151.19;;;-4.01;100.00
7824;BME280;3957;48.61947800;9.05303100;2023-01-27T02:42:28;96143.69;;;-4.06;100.00
7824;BME280;3957;48.61947800;9.05303100;2023-01-27T02:43:29;96149.00;;;-4.07;100.00
7824;BME280;3957;48.61947800;9.05303100;2023-01-27T02:44:31;96153.41;;;-4.08;100.00
7824;BME280;3957;48.61947800;9.05303100;2023-01-27T02:45:31;96147.34;;;-4.08;100.00
7824;BME280;3957;48.61947800;9.05303100;2023-01-27T02:46:33;96146.38;;;-4.07;100.00
7824;BME280;3957;48.61947800;9.05303100;2023-01-27T02:47:34;96146.38;;;-4.07;100.00
7824;BME280;3957;48.61947800;9.05303100;2023-01-27T02:48:34;96144.75;;;-4.08;100.00
7824;BME280;3957;48.61947800;9.05303100;2023-01-27T02:49:34;96148.19;;;-4.08;100.00
7824;BME280;3957;48.61947800;9.05303100;2023-01-27T02:50:36;96146.06;;;-4.03;100.00
7824;BME280;3957;48.61947800;9.05303100;2023-01-27T02:51:36;96152.13;;;-4.02;100.00
7824;BME280;3957;48.61947800;9.05303100;2023-01-27T02:52:38;96142.00;;;-4.07;100.00
7824;BME280;3957;48.61947800;9.05303100;2023-01-27T02:53:39;96148.19;;;-4.08;100.00
7824;BME280;3957;48.61947800;9.05303100;2023-01-27T02:54:40;96146.19;;;-4.04;100.00
7824;BME280;3957;48.61947800;9.05303100;2023-01-27T02:55:41;96151.59;;;-4.07;100.00
7824;BME280;3957;48.61947800;9.05303100;2023-01-27T02:56:41;96151.72;;;-4.09;100.00
7824;BME280;3957;48.61947800;9.05303100;2023-01-27T02:57:42;96150.69;;;-4.06;100.00
7824;BME280;3957;48.61947800;9.05303100;2023-01-27T02:59:02;96152.22;;;-4.04;100.00
7824;BME280;3957;48.61947800;9.05303100;2023-01-27T03:00:08;96143.22;;;-4.00;100.00
7824;BME280;3957;48.61947800;9.05303100;2023-01-27T03:01:12;96139.56;;;-3.97;100.00
7824;BME280;3957;48.61947800;9.05303100;2023-01-27T03:02:12;96144.16;;;-4.01;100.00
7824;BME280;3957;48.61947800;9.05303100;2023-01-27T03:03:14;96147.75;;;-4.02;100.00
7824;BME280;3957;48.61947800;9.05303100;2023-01-27T03:04:14;96146.06;;;-4.03;100.00
7824;BME280;3957;48.61947800;9.05303100;2023-01-27T03:05:15;96145.56;;;-4.08;100.00
7824;BME280;3957;48.61947800;9.05303100;2023-01-27T03:06:16;96146.38;;;-4.07;100.00
7824;BME280;3957;48.61947800;9.05303100;2023-01-27T03:07:17;96144.84;;;-4.10;100.00
7824;BME280;3957;48.61947800;9.05303100;2023-01-27T03:08:17;96147.34;;;-4.08;100.00
7824;BME280;3957;48.61947800;9.05303100;2023-01-27T03:09:18;96149.63;;;-4.04;100.00
7824;BME280;3957;48.61947800;9.05303100;2023-01-27T03:10:18;96152.63;;;-3.97;100.00
7824;BME280;3957;48.61947800;9.05303100;2023-01-27T03:11:18;96148.69;;;-4.03;100.00
7824;BME280;3957;48.61947800;9.05303100;2023-01-27T03:12:39;96158.41;;;-4.05;100.00
7824;BME280;3957;48.61947800;9.05303100;2023-01-27T03:13:40;96149.84;;;-4.07;100.00
7824;BME280;3957;48.61947800;9.05303100;2023-01-27T03:14:40;96154.22;;;-4.07;100.00
7824;BME280;3957;48.61947800;9.05303100;2023-01-27T03:15:59;96149.00;;;-4.07;100.00
7824;BME280;3957;48.61947800;9.05303100;2023-01-27T03:17:19;96148.91;;;-4.06;100.00
7824;BME280;3957;48.61947800;9.05303100;2023-01-27T03:18:38;96146.38;;;-4.07;100.00
7824;BME280;3957;48.61947800;9.05303100;2023-01-27T03:19:38;96146.06;;;-4.03;100.00
7824;BME280;3957;48.61947800;9.05303100;2023-01-27T03:20:39;96148.06;;;-4.06;100.00
7824;BME280;3957;48.61947800;9.05303100;2023-01-27T03:21:40;96140.22;;;-4.06;100.00
7824;BME280;3957;48.61947800;9.05303100;2023-01-27T03:22:41;96144.28;;;-4.02;100.00
7824;BME280;3957;48.61947800;9.05303100;2023-01-27T03:23:43;96139.78;;;-4.00;100.00
7824;BME280;3957;48.61947800;9.05303100;2023-01-27T03:24:45;96145.22;;;-4.03;100.00
7824;BME280;3957;48.61947800;9.05303100;2023-01-27T03:25:47;96142.00;;;-4.07;100.00
7824;BME280;3957;48.61947800;9.05303100;2023-01-27T03:26:47;96136.91;;;-4.08;100.00
7824;BME280;3957;48.61947800;9.05303100;2023-01-27T03:27:50;96137.59;;;-4.06;100.00
7824;BME280;3957;48.61947800;9.05303100;2023-01-27T03:28:56;96140.22;;;-4.06;100.00
7824;BME280;3957;48.61947800;9.05303100;2023-01-27T03:30:17;96147.56;;;-4.12;100.00
7824;BME280;3957;48.61947800;9.05303100;2023-01-27T03:31:27;96148.06;;;-4.06;100.00
7824;BME280;3957;48.61947800;9.05303100;2023-01-27T03:32:34;96149.22;;;-4.11;100.00
7824;BME280;3957;48.61947800;9.05303100;2023-01-27T03:33:54;96150.91;;;-4.10;100.00
7824;BME280;3957;48.61947800;9.05303100;2023-01-27T03:35:01;96148.41;;;-4.11;100.00
7824;BME280;3957;48.61947800;9.05303100;2023-01-27T03:36:07;96143.28;;;-4.13;100.00
7824;BME280;3957;48.61947800;9.05303100;2023-01-27T03:37:27;96142.44;;;-4.13;100.00
7824;BME280;3957;48.61947800;9.05303100;2023-01-27T03:38:46;96145.78;;;-4.11;100.00
7824;BME280;3957;48.61947800;9.05303100;2023-01-27T03:40:06;96137.84;;;-4.10;100.00
7824;BME280;3957;48.61947800;9.05303100;2023-01-27T03:41:26;96145.78;;;-4.11;100.00
7824;BME280;3957;48.61947800;9.05303100;2023-01-27T03:42:45;96147.47;;;-4.10;100.00
7824;BME280;3957;48.61947800;9.05303100;2023-01-27T03:44:04;96147.25;;;-4.07;100.00
7824;BME280;3957;48.61947800;9.05303100;2023-01-27T03:45:23;96148.69;;;-4.03;100.00
7824;BME280;3957;48.61947800;9.05303100;2023-01-27T03:46:42;96141.16;;;-4.07;100.00
7824;BME280;3957;48.61947800;9.05303100;2023-01-27T03:47:42;96150.69;;;-4.06;100.00
7824;BME280;3957;48.61947800;9.05303100;2023-01-27T03:48:46;96153.28;;;-4.06;100.00
7824;BME280;3957;48.61947800;9.05303100;2023-01-27T03:49:47;96153.28;;;-4.06;100.00
7824;BME280;3957;48.61947800;9.05303100;2023-01-27T03:50:47;96153.16;;;-4.05;100.00
7824;BME280;3957;48.61947800;9.05303100;2023-01-27T03:51:53;96157.81;;;-4.08;100.00
7824;BME280;3957;48.61947800;9.05303100;2023-01-27T03:52:53;96154.22;;;-4.07;100.00
7824;BME280;3957;48.61947800;9.05303100;2023-01-27T03:54:02;96152.34;;;-4.05;100.00
7824;BME280;3957;48.61947800;9.05303100;2023-01-27T03:55:03;96155.78;;;-4.05;100.00
7824;BME280;3957;48.61947800;9.05303100;2023-01-27T03:56:04;96164.38;;;-4.03;100.00
7824;BME280;3957;48.61947800;9.05303100;2023-01-27T03:57:05;96155.66;;;-4.03;100.00
7824;BME280;3957;48.61947800;9.05303100;2023-01-27T03:58:17;96158.41;;;-4.05;100.00
7824;BME280;3957;48.61947800;9.05303100;2023-01-27T03:59:18;96161.97;;;-4.06;100.00
7824;BME280;3957;48.61947800;9.05303100;2023-01-27T04:00:19;96151.53;;;-4.06;100.00
7824;BME280;3957;48.61947800;9.05303100;2023-01-27T04:01:21;96154.13;;;-4.06;100.00
7824;BME280;3957;48.61947800;9.05303100;2023-01-27T04:02:22;96156.41;;;-4.01;100.00
7824;BME280;3957;48.61947800;9.05303100;2023-01-27T04:03:42;96151.88;;;-3.99;100.00
7824;BME280;3957;48.61947800;9.05303100;2023-01-27T04:05:01;96153.91;;;-4.03;100.00
7824;BME280;3957;48.61947800;9.05303100;2023-01-27T04:06:23;96149.50;;;-4.02;100.00
7824;BME280;3957;48.61947800;9.05303100;2023-01-27T04:07:43;96160.19;;;-4.05;100.00
7824;BME280;3957;48.61947800;9.05303100;2023-01-27T04:08:43;96151.53;;;-4.06;100.00
7824;BME280;3957;48.61947800;9.05303100;2023-01-27T04:09:43;96158.19;;;-4.02;100.00
7824;BME280;3957;48.61947800;9.05303100;2023-01-27T04:10:44;96161.88;;;-4.04;100.00
7824;BME280;3957;48.61947800;9.05303100;2023-01-27T04:12:05;96160.19;;;-4.05;100.00
7824;BME280;3957;48.61947800;9.05303100;2023-01-27T04:13:06;96163.63;;;-4.05;100.00
7824;BME280;3957;48.61947800;9.05303100;2023-01-27T04:14:07;96154.03;;;-4.04;100.00
7824;BME280;3957;48.61947800;9.05303100;2023-01-27T04:15:08;96155.06;;;-4.07;100.00
7824;BME280;3957;48.61947800;9.05303100;2023-01-27T04:16:08;96150.09;;;-4.10;100.00
7824;BME280;3957;48.61947800;9.05303100;2023-01-27T04:17:10;96156.94;;;-4.09;100.00
7824;BME280;3957;48.61947800;9.05303100;2023-01-27T04:18:11;96154.22;;;-4.07;100.00
7824;BME280;3957;48.61947800;9.05303100;2023-01-27T04:19:12;96149.34;;;-4.12;100.00
7824;BME280;3957;48.61947800;9.05303100;2023-01-27T04:20:12;96148.53;;;-4.13;100.00
7824;BME280;3957;48.61947800;9.05303100;2023-01-27T04:21:13;96154.69;;;-4.14;100.00
7824;BME280;3957;48.61947800;9.05303100;2023-01-27T04:22:14;96159.56;;;-4.09;100.00
7824;BME280;3957;48.61947800;9.05303100;2023-01-27T04:23:15;96159.44;;;-4.07;100.00
7824;BME280;3957;48.61947800;9.05303100;2023-01-27T04:24:15;96161.13;;;-4.06;100.00
7824;BME280;3957;48.61947800;9.05303100;2023-01-27T04:25:16;96155.31;;;-4.10;100.00
7824;BME280;3957;48.61947800;9.05303100;2023-01-27T04:26:17;96161.47;;;-4.11;100.00
7824;BME280;3957;48.61947800;9.05303100;2023-01-27T04:27:17;96164.59;;;-4.06;100.00
7824;BME280;3957;48.61947800;9.05303100;2023-01-27T04:28:19;96154.13;;;-4.06;100.00
7824;BME280;3957;48.61947800;9.05303100;2023-01-27T04:29:21;96154.34;;;-4.09;100.00
7824;BME280;3957;48.61947800;9.05303100;2023-01-27T04:30:22;96161.25;;;-4.08;100.00
7824;BME280;3957;48.61947800;9.05303100;2023-01-27T04:31:22;96158.63;;;-4.08;100.00
7824;BME280;3957;48.61947800;9.05303100;2023-01-27T04:32:22;96159.56;;;-4.09;100.00
7824;BME280;3957;48.61947800;9.05303100;2023-01-27T04:33:23;96151.03;;;-4.11;100.00
7824;BME280;3957;48.61947800;9.05303100;2023-01-27T04:34:24;96153.63;;;-4.11;100.00
7824;BME280;3957;48.61947800;9.05303100;2023-01-27T04:35:25;96160.31;;;-4.07;100.00
7824;BME280;3957;48.61947800;9.05303100;2023-01-27T04:36:25;96153.41;;;-4.08;100.00
7824;BME280;3957;48.61947800;9.05303100;2023-01-27T04:37:25;96163.03;;;-4.08;100.00
7824;BME280;3957;48.61947800;9.05303100;2023-01-27T04:38:26;96161.25;;;-4.08;100.00
7824;BME280;3957;48.61947800;9.05303100;2023-01-27T04:39:26;96164.78;;;-4.09;100.00
7824;BME280;3957;48.61947800;9.05303100;2023-01-27T04:40:27;96171.69;;;-4.08;100.00
7824;BME280;3957;48.61947800;9.05303100;2023-01-27T04:41:27;96169.09;;;-4.08;100.00
7824;BME280;3957;48.61947800;9.05303100;2023-01-27T04:42:27;96167.28;;;-4.07;100.00
7824;BME280;3957;48.61947800;9.05303100;2023-01-27T04:43:29;96171.56;;;-4.06;100.00
7824;BME280;3957;48.61947800;9.05303100;2023-01-27T04:44:29;96178.59;;;-4.07;100.00
7824;BME280;3957;48.61947800;9.05303100;2023-01-27T04:45:29;96171.00;;;-4.10;100.00
7824;BME280;3957;48.61947800;9.05303100;2023-01-27T04:46:31;96174.19;;;-4.06;100.00
7824;BME280;3957;48.61947800;9.05303100;2023-01-27T04:47:32;96168.03;;;-4.05;100.00
7824;BME280;3957;48.61947800;9.05303100;2023-01-27T04:48:33;96172.44;;;-4.06;100.00
7824;BME280;3957;48.61947800;9.05303100;2023-01-27T04:49:33;96164.59;;;-4.06;100.00
7824;BME280;3957;48.61947800;9.05303100;2023-01-27T04:50:34;96171.56;;;-4.06;100.00
7824;BME280;3957;48.61947800;9.05303100;2023-01-27T04:51:34;96166.47;;;-4.08;100.00
7824;BME280;3957;48.61947800;9.05303100;2023-01-27T04:52:34;96161.13;;;-4.06;100.00
7824;BME280;3957;48.61947800;9.05303100;2023-01-27T04:53:35;96155.19;;;-4.08;100.00
7824;BME280;3957;48.61947800;9.05303100;2023-01-27T04:54:35;96158.91;;;-4.00;100.00
7824;BME280;3957;48.61947800;9.05303100;2023-01-27T04:55:36;96153.78;;;-4.01;100.00
7824;BME280;3957;48.61947800;9.05303100;2023-01-27T04:56:38;96161.97;;;-4.06;100.00
7824;BME280;3957;48.61947800;9.05303100;2023-01-27T04:57:40;96167.22;;;-4.06;100.00
7824;BME280;3957;48.61947800;9.05303100;2023-01-27T04:58:40;96163.84;;;-4.08;100.00
7824;BME280;3957;48.61947800;9.05303100;2023-01-27T04:59:40;96168.97;;;-4.06;100.00
7824;BME280;3957;48.61947800;9.05303100;2023-01-27T05:00:41;96159.69;;;-4.11;100.00
7824;BME280;3957;48.61947800;9.05303100;2023-01-27T05:01:41;96163.16;;;-4.10;100.00
7824;BME280;3957;48.61947800;9.05303100;2023-01-27T05:02:42;96164.09;;;-4.11;100.00
7824;BME280;3957;48.61947800;9.05303100;2023-01-27T05:03:42;96158.00;;;-4.12;100.00
7824;BME280;3957;48.61947800;9.05303100;2023-01-27T05:04:42;96163.22;;;-4.12;100.00
7824;BME280;3957;48.61947800;9.05303100;2023-01-27T05:05:43;96160.72;;;-4.13;100.00
7824;BME280;3957;48.61947800;9.05303100;2023-01-27T05:06:43;96165.03;;;-4.12;100.00
7824;BME280;3957;48.61947800;9.05303100;2023-01-27T05:07:43;96166.69;;;-4.11;100.00
7824;BME280;3957;48.61947800;9.05303100;2023-01-27T05:08:44;96171.00;;;-4.10;100.00